createdAt,value
2017-10-06T00:00:34.438Z,97423.14
2017-10-06T00:03:01.995Z,97426.92
2017-10-06T00:05:29.555Z,97431.38
2017-10-06T00:07:57.304Z,97424.50
2017-10-06T00:10:24.836Z,97427.70
2017-10-06T00:12:52.368Z,97426.20
2017-10-06T00:15:20.100Z,97426.92
2017-10-06T00:17:47.628Z,97427.09
2017-10-06T00:20:15.373Z,97426.56
2017-10-06T00:22:43.403Z,97433.10
2017-10-06T00:25:10.950Z,97434.08
2017-10-06T00:27:38.480Z,97434.02
2017-10-06T00:30:06.376Z,97437.16
2017-10-06T00:32:34.025Z,97436.98
2017-10-06T00:35:01.597Z,97440.08
2017-10-06T00:37:29.563Z,97442.95
2017-10-06T00:39:57.124Z,97443.86
2017-10-06T00:42:24.675Z,97446.96
2017-10-06T00:44:52.447Z,97443.00
2017-10-06T00:47:20.046Z,97438.02
2017-10-06T00:49:47.564Z,97437.78
2017-10-06T00:52:15.311Z,97446.48
2017-10-06T00:54:42.840Z,97446.06
2017-10-06T00:57:10.388Z,97445.05
2017-10-06T00:59:38.300Z,97448.02
2017-10-06T01:02:05.872Z,97452.13
2017-10-06T01:04:33.403Z,97450.98
2017-10-06T01:07:01.182Z,97449.06
2017-10-06T01:09:28.703Z,97447.59
2017-10-06T01:11:56.232Z,97443.90
2017-10-06T01:14:23.808Z,97441.34
2017-10-06T01:16:51.339Z,97434.80
2017-10-06T01:19:19.810Z,97439.38
2017-10-06T01:21:47.588Z,97431.36
2017-10-06T01:24:15.132Z,97429.44
2017-10-06T01:26:42.707Z,97430.03
2017-10-06T01:29:10.283Z,97433.05
2017-10-06T01:31:37.844Z,97437.83
2017-10-06T01:34:05.368Z,97433.66
2017-10-06T01:36:33.276Z,97435.88
2017-10-06T01:39:00.795Z,97441.36
2017-10-06T01:41:28.354Z,97450.34
2017-10-06T01:43:55.911Z,97456.30
2017-10-06T01:46:23.472Z,97451.86
2017-10-06T01:48:51.031Z,97457.92
2017-10-06T01:51:18.590Z,97454.45
2017-10-06T01:53:46.148Z,97461.26
2017-10-06T01:56:13.714Z,97460.02
2017-10-06T01:58:41.456Z,97466.12
2017-10-06T02:01:08.984Z,97471.50
2017-10-06T02:03:36.591Z,97470.73
2017-10-06T02:06:04.140Z,97468.55
2017-10-06T02:08:31.716Z,97468.13
2017-10-06T02:10:59.267Z,97464.06
2017-10-06T02:13:27.080Z,97468.38
2017-10-06T02:15:54.629Z,97464.69
2017-10-06T02:18:22.384Z,97465.36
2017-10-06T02:20:50.030Z,97470.10
2017-10-06T02:23:17.575Z,97472.52
2017-10-06T02:25:45.149Z,97467.30
2017-10-06T02:28:12.724Z,97475.73
2017-10-06T02:30:40.252Z,97471.42
2017-10-06T02:33:07.814Z,97469.20
2017-10-06T02:35:35.358Z,97473.77
2017-10-06T02:38:02.992Z,97467.81
2017-10-06T02:40:30.518Z,97470.47
2017-10-06T02:42:58.256Z,97466.87
2017-10-06T02:45:25.775Z,97465.62
2017-10-06T02:47:53.299Z,97463.23
2017-10-06T02:50:21.026Z,97458.17
2017-10-06T02:52:48.592Z,97455.95
2017-10-06T02:55:16.152Z,97462.14
2017-10-06T02:57:43.725Z,97461.45
2017-10-06T03:00:11.268Z,97459.77
2017-10-06T03:02:38.828Z,97466.88
2017-10-06T03:05:06.591Z,97461.28
2017-10-06T03:07:34.322Z,97464.03
2017-10-06T03:10:01.889Z,97456.87
2017-10-06T03:12:29.595Z,97463.25
2017-10-06T03:14:57.135Z,97465.92
2017-10-06T03:17:24.694Z,97466.94
2017-10-06T03:19:52.356Z,97469.52
2017-10-06T03:22:19.876Z,97468.47
2017-10-06T03:24:47.395Z,97465.42
2017-10-06T03:27:15.251Z,97471.94
2017-10-06T03:29:42.796Z,97465.38
2017-10-06T03:32:10.313Z,97467.69
2017-10-06T03:34:38.155Z,97463.31
2017-10-06T03:37:05.671Z,97472.16
2017-10-06T03:39:33.235Z,97470.23
2017-10-06T03:42:01.108Z,97468.44
2017-10-06T03:44:28.620Z,97468.20
2017-10-06T03:46:56.143Z,97466.92
2017-10-06T03:49:23.864Z,97468.70
2017-10-06T03:51:51.443Z,97467.94
2017-10-06T03:54:18.964Z,97470.63
2017-10-06T03:56:46.765Z,97467.42
2017-10-06T03:59:14.325Z,97470.96
2017-10-06T04:01:41.885Z,97472.17
2017-10-06T04:04:09.632Z,97463.15
2017-10-06T04:06:37.156Z,97475.52
2017-10-06T04:09:04.846Z,97474.95
2017-10-06T04:11:32.619Z,97473.59
2017-10-06T04:14:00.139Z,97472.83
2017-10-06T04:16:27.688Z,97469.73
2017-10-06T04:18:55.391Z,97470.67
2017-10-06T04:21:22.972Z,97460.95
2017-10-06T04:23:50.531Z,97469.47
2017-10-06T04:26:18.275Z,97469.54
2017-10-06T04:28:45.853Z,97475.14
2017-10-06T04:31:13.414Z,97463.50
2017-10-06T04:33:40.984Z,97463.25
2017-10-06T04:36:08.530Z,97465.36
2017-10-06T04:38:36.090Z,97461.15
2017-10-06T04:41:04.040Z,97466.59
2017-10-06T04:43:31.561Z,97460.06
2017-10-06T04:45:59.585Z,97463.02
2017-10-06T04:48:27.132Z,97465.42
2017-10-06T04:50:54.705Z,97475.36
2017-10-06T04:53:22.224Z,97474.05
2017-10-06T04:55:49.822Z,97478.66
2017-10-06T04:58:17.380Z,97477.48
2017-10-06T05:00:45.023Z,97478.14
2017-10-06T05:03:12.592Z,97475.02
2017-10-06T05:05:40.110Z,97478.84
2017-10-06T05:08:07.644Z,97481.16
2017-10-06T05:10:35.380Z,97479.41
2017-10-06T05:13:02.941Z,97481.78
2017-10-06T05:15:30.501Z,97486.31
2017-10-06T05:17:58.064Z,97490.44
2017-10-06T05:20:25.630Z,97490.03
2017-10-06T05:22:53.177Z,97492.79
2017-10-06T05:25:21.043Z,97491.39
2017-10-06T05:27:48.645Z,97482.05
2017-10-06T05:30:16.171Z,97483.20
2017-10-06T05:32:43.822Z,97481.44
2017-10-06T05:35:11.383Z,97486.76
2017-10-06T05:37:38.940Z,97487.73
2017-10-06T05:40:06.687Z,97491.89
2017-10-06T05:42:34.212Z,97490.55
2017-10-06T05:45:01.745Z,97498.88
2017-10-06T05:47:29.689Z,97495.91
2017-10-06T05:49:57.217Z,97494.91
2017-10-06T05:52:24.736Z,97490.36
2017-10-06T05:54:52.673Z,97490.06
2017-10-06T05:57:20.234Z,97495.74
2017-10-06T05:59:47.808Z,97496.96
2017-10-06T06:02:15.536Z,97499.56
2017-10-06T06:04:43.059Z,97500.50
2017-10-06T06:07:10.583Z,97510.11
2017-10-06T06:09:38.130Z,97505.28
2017-10-06T06:12:05.691Z,97511.08
2017-10-06T06:14:33.248Z,97512.51
2017-10-06T06:17:01.934Z,97516.74
2017-10-06T06:19:29.514Z,97511.08
2017-10-06T06:21:57.066Z,97512.11
2017-10-06T06:24:24.612Z,97514.03
2017-10-06T06:26:52.170Z,97518.16
2017-10-06T06:29:19.741Z,97517.42
2017-10-06T06:31:48.218Z,97520.27
2017-10-06T06:34:15.769Z,97515.84
2017-10-06T06:36:44.353Z,97517.58
2017-10-06T06:39:11.916Z,97522.81
2017-10-06T06:41:39.471Z,97526.83
2017-10-06T06:44:07.033Z,97537.14
2017-10-06T06:46:35.308Z,97534.95
2017-10-06T06:49:02.840Z,97529.64
2017-10-06T06:51:30.426Z,97525.07
2017-10-06T06:53:58.197Z,97534.39
2017-10-06T06:56:25.719Z,97533.20
2017-10-06T06:58:53.244Z,97537.16
2017-10-06T07:01:20.866Z,97536.98
2017-10-06T07:03:48.425Z,97538.56
2017-10-06T07:06:15.983Z,97539.86
2017-10-06T07:08:43.737Z,97536.48
2017-10-06T07:11:11.310Z,97541.50
2017-10-06T07:13:38.859Z,97540.70
2017-10-06T07:16:06.453Z,97542.55
2017-10-06T07:18:34.041Z,97536.73
2017-10-06T07:21:01.560Z,97549.58
2017-10-06T07:23:29.259Z,97543.03
2017-10-06T07:25:56.791Z,97546.75
2017-10-06T07:28:24.313Z,97551.36
2017-10-06T07:30:52.093Z,97554.67
2017-10-06T07:33:19.611Z,97553.54
2017-10-06T07:35:47.143Z,97558.57
2017-10-06T07:38:14.888Z,97557.22
2017-10-06T07:40:42.416Z,97559.12
2017-10-06T07:43:09.937Z,97556.61
2017-10-06T07:45:37.797Z,97558.75
2017-10-06T07:48:05.324Z,97558.50
2017-10-06T07:50:32.855Z,97563.23
2017-10-06T07:53:00.787Z,97562.12
2017-10-06T07:55:28.310Z,97556.57
2017-10-06T07:57:55.845Z,97562.94
2017-10-06T08:00:23.405Z,97552.41
2017-10-06T08:02:50.968Z,97567.86
2017-10-06T08:05:18.801Z,97561.18
2017-10-06T08:07:46.701Z,97561.44
2017-10-06T08:10:14.223Z,97560.02
2017-10-06T08:12:42.461Z,97552.30
2017-10-06T08:15:10.900Z,97557.53
2017-10-06T08:17:38.474Z,97557.27
2017-10-06T08:20:05.996Z,97559.84
2017-10-06T08:22:33.797Z,97553.96
2017-10-06T08:25:01.327Z,97553.16
2017-10-06T08:27:28.865Z,97552.95
2017-10-06T08:29:56.568Z,97549.70
2017-10-06T08:32:24.134Z,97555.63
2017-10-06T08:34:51.694Z,97555.52
2017-10-06T08:37:19.443Z,97567.19
2017-10-06T08:39:46.965Z,97556.03
2017-10-06T08:42:14.490Z,97557.14
2017-10-06T08:44:42.340Z,97570.64
2017-10-06T08:47:09.920Z,97568.53
2017-10-06T08:49:37.460Z,97568.31
2017-10-06T08:52:05.308Z,97567.91
2017-10-06T08:54:32.836Z,97574.78
2017-10-06T08:57:00.392Z,97577.34
2017-10-06T08:59:28.206Z,97579.61
2017-10-06T09:01:55.772Z,97583.56
2017-10-06T09:04:23.325Z,97585.90
2017-10-06T09:06:50.900Z,97583.30
2017-10-06T09:09:18.466Z,97584.29
2017-10-06T09:11:45.991Z,97585.17
2017-10-06T09:14:13.669Z,97588.48
2017-10-06T09:16:41.184Z,97577.58
2017-10-06T09:19:08.700Z,97589.45
2017-10-06T09:21:36.342Z,97587.12
2017-10-06T09:24:04.413Z,97584.22
2017-10-06T09:26:31.970Z,97575.80
2017-10-06T09:28:59.735Z,97580.77
2017-10-06T09:31:27.255Z,97582.69
2017-10-06T09:33:54.781Z,97574.98
2017-10-06T09:36:22.516Z,97575.41
2017-10-06T09:38:50.075Z,97576.14
2017-10-06T09:41:17.604Z,97577.63
2017-10-06T09:43:45.193Z,97575.42
2017-10-06T09:46:12.752Z,97580.73
2017-10-06T09:48:40.311Z,97576.70
2017-10-06T09:51:07.873Z,97581.29
2017-10-06T09:53:35.428Z,97580.73
2017-10-06T09:56:02.950Z,97589.97
2017-10-06T09:58:30.634Z,97578.62
2017-10-06T10:00:58.256Z,97586.30
2017-10-06T10:03:25.776Z,97601.96
2017-10-06T10:05:53.516Z,97594.40
2017-10-06T10:08:21.051Z,97600.64
2017-10-06T10:10:49.571Z,97594.95
2017-10-06T10:13:17.166Z,97592.11
2017-10-06T10:15:44.696Z,97595.46
2017-10-06T10:18:12.217Z,97605.20
2017-10-06T10:20:39.910Z,97610.09
2017-10-06T10:23:07.478Z,97620.09
2017-10-06T10:25:35.003Z,97614.41
2017-10-06T10:28:02.672Z,97616.42
2017-10-06T10:30:30.197Z,97604.92
2017-10-06T10:32:57.720Z,97616.88
2017-10-06T10:35:25.279Z,97618.05
2017-10-06T10:37:52.822Z,97620.16
2017-10-06T10:40:20.343Z,97620.94
2017-10-06T10:42:48.153Z,97621.74
2017-10-06T10:45:15.705Z,97613.33
2017-10-06T10:47:43.266Z,97617.75
2017-10-06T10:50:11.029Z,97610.27
2017-10-06T10:52:38.602Z,97609.61
2017-10-06T10:55:06.129Z,97620.33
2017-10-06T10:57:34.040Z,97629.09
2017-10-06T11:00:01.555Z,97619.78
2017-10-06T11:02:29.084Z,97623.86
2017-10-06T11:04:56.646Z,97624.13
2017-10-06T11:07:24.168Z,97629.09
2017-10-06T11:09:51.688Z,97625.84
2017-10-06T11:12:19.396Z,97629.38
2017-10-06T11:17:21.243Z,97624.30
2017-10-06T11:19:48.825Z,97627.13
2017-10-06T11:22:16.516Z,97630.70
2017-10-06T11:24:44.324Z,97625.86
2017-10-06T11:27:11.903Z,97629.64
2017-10-06T11:29:39.465Z,97631.88
2017-10-06T11:32:07.449Z,97632.84
2017-10-06T11:34:35.205Z,97631.55
2017-10-06T11:37:02.949Z,97632.23
2017-10-06T11:39:30.577Z,97625.45
2017-10-06T11:41:58.166Z,97628.17
2017-10-06T11:44:25.726Z,97626.77
2017-10-06T11:46:53.489Z,97629.69
2017-10-06T11:49:21.069Z,97621.92
2017-10-06T11:51:48.914Z,97622.00
2017-10-06T11:54:16.987Z,97615.84
2017-10-06T11:56:44.779Z,97611.12
2017-10-06T11:59:12.653Z,97605.66
2017-10-06T12:01:41.302Z,97605.98
2017-10-06T12:04:09.071Z,97610.16
2017-10-06T12:06:37.046Z,97608.89
2017-10-06T12:09:05.722Z,97608.04
2017-10-06T12:11:33.587Z,97596.88
2017-10-06T12:14:01.307Z,97607.02
2017-10-06T12:16:29.116Z,97609.56
2017-10-06T12:18:56.868Z,97611.23
2017-10-06T12:21:24.540Z,97628.64
2017-10-06T12:23:52.494Z,97633.45
2017-10-06T12:26:20.071Z,97646.97
2017-10-06T12:28:47.767Z,97649.99
2017-10-06T12:31:15.813Z,97646.03
2017-10-06T12:33:43.589Z,97649.69
2017-10-06T12:36:11.327Z,97651.27
2017-10-06T12:38:39.048Z,97655.59
2017-10-06T12:41:06.673Z,97646.02
2017-10-06T12:43:34.423Z,97651.09
2017-10-06T12:46:02.488Z,97647.42
2017-10-06T12:48:30.263Z,97649.59
2017-10-06T12:50:57.822Z,97642.52
2017-10-06T12:53:25.423Z,97651.05
2017-10-06T12:55:53.441Z,97652.16
2017-10-06T12:58:21.409Z,97644.59
2017-10-06T13:00:49.494Z,97639.48
2017-10-06T13:03:17.161Z,97635.80
2017-10-06T13:05:44.699Z,97629.67
2017-10-06T13:08:12.873Z,97632.29
2017-10-06T13:10:40.544Z,97637.85
2017-10-06T13:13:08.290Z,97631.30
2017-10-06T13:15:36.294Z,97632.15
2017-10-06T13:18:03.972Z,97643.34
2017-10-06T13:20:31.830Z,97643.66
2017-10-06T13:22:59.723Z,97648.67
2017-10-06T13:25:27.424Z,97640.88
2017-10-06T13:27:55.090Z,97644.58
2017-10-06T13:30:23.081Z,97655.24
2017-10-06T13:32:51.433Z,97647.64
2017-10-06T13:35:19.217Z,97658.45
2017-10-06T13:37:47.063Z,97661.15
2017-10-06T13:40:14.726Z,97665.08
2017-10-06T13:42:42.491Z,97662.94
2017-10-06T13:45:10.662Z,97667.02
2017-10-06T13:47:38.457Z,97670.52
2017-10-06T13:50:06.175Z,97658.52
2017-10-06T13:52:34.261Z,97662.88
2017-10-06T13:55:02.641Z,97673.92
2017-10-06T13:57:31.120Z,97668.55
2017-10-06T13:59:59.310Z,97667.73
2017-10-06T14:02:27.127Z,97660.42
2017-10-06T14:04:55.231Z,97655.10
2017-10-06T14:07:23.316Z,97658.94
2017-10-06T14:09:51.169Z,97665.48
2017-10-06T14:12:18.958Z,97675.38
2017-10-06T14:14:46.836Z,97672.72
2017-10-06T14:17:14.627Z,97673.29
2017-10-06T14:19:42.449Z,97672.14
2017-10-06T14:22:10.708Z,97678.33
2017-10-06T14:24:38.388Z,97683.73
2017-10-06T14:27:06.234Z,97683.63
2017-10-06T14:29:34.124Z,97688.59
2017-10-06T14:32:01.864Z,97698.02
2017-10-06T14:34:29.579Z,97690.18
2017-10-06T14:36:57.493Z,97688.91
2017-10-06T14:39:25.274Z,97683.32
2017-10-06T14:41:53.040Z,97692.30
2017-10-06T14:44:21.194Z,97692.59
2017-10-06T14:46:48.964Z,97696.81
2017-10-06T14:49:16.722Z,97701.39
2017-10-06T14:51:44.693Z,97702.15
2017-10-06T14:54:12.455Z,97705.89
2017-10-06T14:56:40.021Z,97704.36
2017-10-06T14:59:07.881Z,97703.16
2017-10-06T15:01:35.439Z,97702.56
2017-10-06T15:04:03.100Z,97706.31
2017-10-06T15:06:30.867Z,97691.41
2017-10-06T15:08:58.464Z,97692.23
2017-10-06T15:11:26.012Z,97701.06
2017-10-06T15:13:53.749Z,97705.89
2017-10-06T15:16:21.409Z,97712.55
2017-10-06T15:18:48.968Z,97711.82
2017-10-06T15:21:16.569Z,97717.66
2017-10-06T15:23:44.195Z,97710.34
2017-10-06T15:26:11.746Z,97709.08
2017-10-06T15:28:39.512Z,97719.23
2017-10-06T15:31:07.175Z,97710.90
2017-10-06T15:33:34.731Z,97716.41
2017-10-06T15:36:02.391Z,97719.42
2017-10-06T15:38:29.965Z,97719.48
2017-10-06T15:40:58.091Z,97720.91
2017-10-06T15:43:25.910Z,97730.84
2017-10-06T15:45:53.439Z,97729.49
2017-10-06T15:48:21.031Z,97738.00
2017-10-06T15:50:48.874Z,97734.23
2017-10-06T15:53:16.411Z,97739.34
2017-10-06T15:55:43.993Z,97740.27
2017-10-06T15:58:12.064Z,97741.22
2017-10-06T16:00:39.950Z,97741.17
2017-10-06T16:03:07.753Z,97746.63
2017-10-06T16:05:35.558Z,97745.70
2017-10-06T16:08:03.134Z,97747.99
2017-10-06T16:10:30.733Z,97748.66
2017-10-06T16:12:58.579Z,97760.77
2017-10-06T16:15:26.429Z,97758.30
2017-10-06T16:17:54.281Z,97761.18
2017-10-06T16:20:21.860Z,97764.84
2017-10-06T16:22:49.418Z,97770.80
2017-10-06T16:25:16.977Z,97771.80
2017-10-06T16:27:44.618Z,97770.05
2017-10-06T16:30:12.171Z,97765.28
2017-10-06T16:32:39.729Z,97772.81
2017-10-06T16:35:07.497Z,97769.24
2017-10-06T16:37:35.040Z,97767.19
2017-10-06T16:40:02.608Z,97776.28
2017-10-06T16:42:30.585Z,97777.16
2017-10-06T16:44:58.249Z,97771.16
2017-10-06T16:47:25.825Z,97777.49
2017-10-06T16:49:53.391Z,97786.28
2017-10-06T16:52:20.952Z,97785.83
2017-10-06T16:54:48.486Z,97799.52
2017-10-06T16:57:16.144Z,97800.84
2017-10-06T16:59:43.808Z,97810.95
2017-10-06T17:02:11.655Z,97813.87
2017-10-06T17:04:39.258Z,97815.75
2017-10-06T17:07:06.809Z,97820.38
2017-10-06T17:09:34.453Z,97813.59
2017-10-06T17:12:03.131Z,97813.01
2017-10-06T17:14:30.684Z,97816.39
2017-10-06T17:16:58.358Z,97820.04
2017-10-06T17:19:26.064Z,97825.58
2017-10-06T17:21:53.596Z,97831.08
2017-10-06T17:24:21.145Z,97840.91
2017-10-06T17:26:49.016Z,97836.48
2017-10-06T17:29:17.823Z,97849.31
2017-10-06T17:31:45.766Z,97848.98
2017-10-06T17:34:13.939Z,97856.08
2017-10-06T17:36:42.437Z,97871.30
2017-10-06T17:39:10.522Z,97869.45
2017-10-06T17:41:38.883Z,97867.73
2017-10-06T17:44:06.832Z,97860.29
2017-10-06T17:46:34.391Z,97861.55
2017-10-06T17:49:02.360Z,97865.44
2017-10-06T17:51:30.330Z,97864.36
2017-10-06T17:53:58.194Z,97864.59
2017-10-06T17:56:25.964Z,97864.52
2017-10-06T17:58:54.395Z,97867.04
2017-10-06T18:01:22.308Z,97862.98
2017-10-06T18:03:50.559Z,97874.06
2017-10-06T18:06:18.369Z,97869.25
2017-10-06T18:08:46.109Z,97874.22
2017-10-06T18:11:14.129Z,97876.89
2017-10-06T18:13:42.317Z,97870.53
2017-10-06T18:16:10.479Z,97871.91
2017-10-06T18:18:38.565Z,97877.55
2017-10-06T18:21:06.466Z,97876.69
2017-10-06T18:23:34.449Z,97877.20
2017-10-06T18:26:02.199Z,97887.16
2017-10-06T18:28:29.962Z,97891.75
2017-10-06T18:30:59.463Z,97901.53
2017-10-06T18:33:28.509Z,97907.51
2017-10-06T18:35:56.783Z,97912.75
2017-10-06T18:38:25.475Z,97908.39
2017-10-06T18:40:54.939Z,97910.59
2017-10-06T18:43:23.054Z,97911.31
2017-10-06T18:45:51.674Z,97917.07
2017-10-06T18:48:20.626Z,97914.48
2017-10-06T18:50:49.186Z,97918.63
2017-10-06T18:53:17.364Z,97919.86
2017-10-06T18:55:45.740Z,97916.15
2017-10-06T18:58:13.892Z,97921.90
2017-10-06T19:00:42.209Z,97917.25
2017-10-06T19:03:10.479Z,97921.52
2017-10-06T19:05:38.304Z,97916.78
2017-10-06T19:08:06.573Z,97921.73
2017-10-06T19:10:35.524Z,97922.57
2017-10-06T19:13:04.390Z,97930.55
2017-10-06T19:15:32.938Z,97930.95
2017-10-06T19:18:01.246Z,97930.43
2017-10-06T19:20:29.744Z,97938.05
2017-10-06T19:22:58.550Z,97939.50
2017-10-06T19:25:27.407Z,97947.19
2017-10-06T19:27:56.086Z,97944.00
2017-10-06T19:30:24.864Z,97947.55
2017-10-06T19:32:53.243Z,97950.98
2017-10-06T19:35:21.340Z,97956.06
2017-10-06T19:37:50.201Z,97962.27
2017-10-06T19:40:19.623Z,97967.30
2017-10-06T19:42:47.459Z,97977.17
2017-10-06T19:45:16.213Z,97972.60
2017-10-06T19:47:44.993Z,97978.97
2017-10-06T19:50:13.479Z,97980.06
2017-10-06T19:52:41.866Z,97982.81
2017-10-06T19:55:11.327Z,97991.94
2017-10-06T19:57:39.867Z,97986.63
2017-10-06T20:00:08.244Z,97989.36
2017-10-06T20:02:36.875Z,98000.67
2017-10-06T20:05:05.618Z,98003.17
2017-10-06T20:07:34.669Z,97995.44
2017-10-06T20:10:04.023Z,97994.70
2017-10-06T20:12:32.435Z,98001.36
2017-10-06T20:15:02.144Z,97999.11
2017-10-06T20:17:30.974Z,98005.41
2017-10-06T20:19:59.630Z,98003.64
2017-10-06T20:22:29.604Z,97997.36
2017-10-06T20:24:58.572Z,97995.36
2017-10-06T20:27:27.857Z,98004.31
2017-10-06T20:29:56.285Z,98006.44
2017-10-06T20:32:25.646Z,98008.83
2017-10-06T20:34:55.754Z,98012.16
2017-10-06T20:37:24.441Z,98015.73
2017-10-06T20:39:53.777Z,98020.81
2017-10-06T20:42:22.211Z,98018.27
2017-10-06T20:44:51.012Z,98029.59
2017-10-06T20:47:20.545Z,98028.66
2017-10-06T20:49:49.394Z,98033.66
2017-10-06T20:52:18.139Z,98031.08
2017-10-06T20:54:46.326Z,98035.37
2017-10-06T20:57:14.486Z,98031.83
2017-10-06T20:59:43.490Z,98042.66
2017-10-06T21:02:11.509Z,98040.77
2017-10-06T21:04:39.915Z,98041.29
2017-10-06T21:07:09.085Z,98046.38
2017-10-06T21:09:38.038Z,98040.09
2017-10-06T21:12:06.965Z,98045.03
2017-10-06T21:14:35.520Z,98049.91
2017-10-06T21:17:03.566Z,98042.37
2017-10-06T21:19:31.815Z,98036.02
2017-10-06T21:22:00.995Z,98043.46
2017-10-06T21:24:30.110Z,98046.11
2017-10-06T21:26:58.084Z,98042.89
2017-10-06T21:29:26.963Z,98039.02
2017-10-06T21:31:55.800Z,98050.35
2017-10-06T21:34:24.381Z,98051.02
2017-10-06T21:36:53.015Z,98054.30
2017-10-06T21:39:21.725Z,98048.37
2017-10-06T21:41:50.260Z,98057.46
2017-10-06T21:44:18.844Z,98056.78
2017-10-06T21:46:47.000Z,98059.78
2017-10-06T21:49:15.311Z,98054.06
2017-10-06T21:51:43.655Z,98046.39
2017-10-06T21:54:12.203Z,98050.06
2017-10-06T21:56:40.198Z,98046.87
2017-10-06T21:59:08.849Z,98057.63
2017-10-06T22:01:37.039Z,98054.30
2017-10-06T22:04:05.486Z,98056.17
2017-10-06T22:06:34.229Z,98054.12
2017-10-06T22:09:02.471Z,98054.72
2017-10-06T22:11:30.331Z,98055.65
2017-10-06T22:13:58.774Z,98060.34
2017-10-06T22:16:26.704Z,98052.28
2017-10-06T22:18:54.688Z,98067.04
2017-10-06T22:21:23.073Z,98059.09
2017-10-06T22:23:51.521Z,98059.10
2017-10-06T22:26:19.656Z,98061.84
2017-10-06T22:28:48.009Z,98068.81
2017-10-06T22:31:15.927Z,98063.45
2017-10-06T22:33:44.112Z,98068.40
2017-10-06T22:36:12.514Z,98066.84
2017-10-06T22:38:40.643Z,98073.46
2017-10-06T22:41:08.645Z,98068.88
2017-10-06T22:43:36.790Z,98074.20
2017-10-06T22:46:04.849Z,98079.14
2017-10-06T22:48:32.839Z,98074.56
2017-10-06T22:51:01.292Z,98076.05
2017-10-06T22:53:29.331Z,98070.36
2017-10-06T22:55:57.334Z,98071.07
2017-10-06T22:58:25.342Z,98073.45
2017-10-06T23:00:56.781Z,98077.19
2017-10-06T23:03:24.737Z,98082.86
2017-10-06T23:05:52.927Z,98083.34
2017-10-06T23:08:21.124Z,98079.55
2017-10-06T23:10:49.564Z,98085.30
2017-10-06T23:13:17.362Z,98087.28
2017-10-06T23:15:45.822Z,98089.88
2017-10-06T23:18:13.881Z,98086.84
2017-10-06T23:20:42.012Z,98091.83
2017-10-06T23:23:10.124Z,98095.09
2017-10-06T23:25:37.717Z,98099.09
2017-10-06T23:28:06.247Z,98104.70
2017-10-06T23:30:34.950Z,98102.84
2017-10-06T23:33:03.380Z,98103.16
2017-10-06T23:35:31.559Z,98095.83
2017-10-06T23:37:59.686Z,98103.58
2017-10-06T23:40:31.578Z,98107.09
2017-10-06T23:42:59.618Z,98097.38
2017-10-06T23:45:27.640Z,98098.20
2017-10-06T23:47:56.571Z,98100.19
2017-10-06T23:50:24.714Z,98101.09
2017-10-06T23:52:53.339Z,98107.64
2017-10-06T23:55:22.284Z,98105.40
2017-10-06T23:57:50.710Z,98110.66
